createdAt,value
2023-01-08T00:00:20.861Z,53.47
2023-01-08T00:04:42.705Z,54.78
2023-01-08T00:08:45.226Z,52.20
2023-01-08T00:12:46.870Z,51.03
2023-01-08T00:16:48.833Z,49.38
2023-01-08T00:20:50.838Z,53.03
2023-01-08T00:24:52.586Z,51.88
2023-01-08T00:28:54.559Z,55.03
2023-01-08T00:32:56.212Z,49.60
2023-01-08T00:36:59.232Z,49.85
2023-01-08T00:41:00.972Z,52.22
2023-01-08T00:45:03.031Z,49.58
2023-01-08T00:49:04.978Z,51.47
2023-01-08T00:53:06.899Z,45.70
2023-01-08T00:57:08.727Z,48.20
2023-01-08T01:01:13.153Z,47.83
2023-01-08T01:05:16.919Z,47.80
2023-01-08T01:09:18.855Z,47.15
2023-01-08T01:13:20.569Z,45.67
2023-01-08T01:17:22.603Z,45.35
2023-01-08T01:21:27.675Z,44.53
2023-01-08T01:25:29.389Z,44.95
2023-01-08T01:29:31.473Z,46.17
2023-01-08T01:33:33.301Z,45.17
2023-01-08T01:37:35.252Z,43.78
2023-01-08T01:41:42.961Z,40.75
2023-01-08T01:45:44.986Z,41.97
2023-01-08T01:49:55.570Z,43.15
2023-01-08T01:53:58.151Z,41.42
2023-01-08T01:58:21.343Z,41.45
2023-01-08T02:02:23.508Z,41.30
2023-01-08T02:06:39.037Z,38.47
2023-01-08T02:11:09.039Z,39.38
2023-01-08T02:15:15.316Z,37.85
2023-01-08T02:19:34.292Z,34.65
2023-01-08T02:24:02.455Z,34.90
2023-01-08T02:28:14.114Z,31.67
2023-01-08T02:32:16.397Z,30.00
2023-01-08T02:36:28.151Z,30.13
2023-01-08T02:40:35.554Z,32.50
2023-01-08T02:44:45.729Z,31.95
2023-01-08T02:49:01.499Z,30.63
2023-01-08T02:53:11.671Z,27.90
2023-01-08T02:57:17.066Z,30.20
2023-01-08T03:01:21.937Z,29.35
2023-01-08T03:05:26.503Z,28.65
2023-01-08T03:09:29.110Z,29.55
2023-01-08T03:13:40.133Z,28.92
2023-01-08T03:17:46.667Z,29.23
2023-01-08T03:21:51.563Z,28.10
2023-01-08T03:25:53.272Z,27.55
2023-01-08T03:29:58.670Z,28.23
2023-01-08T03:34:02.834Z,26.52
2023-01-08T03:38:11.773Z,25.85
2023-01-08T03:42:16.587Z,25.95
2023-01-08T03:46:31.562Z,23.08
2023-01-08T03:50:34.165Z,24.35
2023-01-08T03:54:36.961Z,22.27
2023-01-08T03:58:39.000Z,20.13
2023-01-08T04:02:42.220Z,20.42
2023-01-08T04:06:44.389Z,20.75
2023-01-08T04:10:46.080Z,21.48
2023-01-08T04:14:48.072Z,21.88
2023-01-08T04:18:50.150Z,20.95
2023-01-08T04:22:52.378Z,20.00
2023-01-08T04:26:54.018Z,21.00
2023-01-08T04:30:56.217Z,21.15
2023-01-08T04:34:57.883Z,19.92
2023-01-08T04:38:59.835Z,21.05
2023-01-08T04:43:01.579Z,18.98
2023-01-08T04:47:03.503Z,19.88
2023-01-08T04:51:05.477Z,18.25
2023-01-08T04:55:07.763Z,18.88
2023-01-08T04:59:09.722Z,18.08
2023-01-08T05:03:11.532Z,18.08
2023-01-08T05:07:13.632Z,17.35
2023-01-08T05:11:15.410Z,20.05
2023-01-08T05:15:17.712Z,17.58
2023-01-08T05:19:19.479Z,20.38
2023-01-08T05:23:21.401Z,17.42
2023-01-08T05:27:23.077Z,18.05
2023-01-08T05:31:25.154Z,17.38
2023-01-08T05:35:26.805Z,19.17
2023-01-08T05:39:28.719Z,18.77
2023-01-08T05:43:31.457Z,19.48
2023-01-08T05:47:34.611Z,20.52
2023-01-08T05:51:36.377Z,19.65
2023-01-08T05:55:38.335Z,18.65
2023-01-08T05:59:39.983Z,19.25
2023-01-08T06:03:42.175Z,19.92
2023-01-08T06:07:43.932Z,18.48
2023-01-08T06:11:46.292Z,20.25
2023-01-08T06:15:48.130Z,20.90
2023-01-08T06:19:50.076Z,18.10
2023-01-08T06:23:52.001Z,19.17
2023-01-08T06:27:53.692Z,18.83
2023-01-08T06:31:56.299Z,18.35
2023-01-08T06:36:02.573Z,18.40
2023-01-08T06:40:04.926Z,18.35
2023-01-08T06:44:06.865Z,18.60
2023-01-08T06:48:08.876Z,17.38
2023-01-08T06:52:10.894Z,18.13
2023-01-08T06:56:13.533Z,18.35
2023-01-08T07:00:17.024Z,18.30
2023-01-08T07:04:19.452Z,19.67
2023-01-08T07:08:21.565Z,20.15
2023-01-08T07:12:24.615Z,20.65
2023-01-08T07:16:26.670Z,23.20
2023-01-08T07:20:28.671Z,23.10
2023-01-08T07:24:30.485Z,22.55
2023-01-08T07:28:32.402Z,23.60
2023-01-08T07:32:34.161Z,21.83
2023-01-08T07:36:36.168Z,21.52
2023-01-08T07:40:39.495Z,20.42
2023-01-08T07:44:41.307Z,22.20
2023-01-08T07:48:43.465Z,21.02
2023-01-08T07:52:45.415Z,19.52
2023-01-08T07:56:47.102Z,20.65
2023-01-08T08:00:49.022Z,24.27
2023-01-08T08:04:50.733Z,21.65
2023-01-08T08:08:52.724Z,21.48
2023-01-08T08:12:54.629Z,21.00
2023-01-08T08:16:56.341Z,22.00
2023-01-08T08:20:58.410Z,23.08
2023-01-08T08:25:00.047Z,22.80
2023-01-08T08:29:02.190Z,22.48
2023-01-08T08:33:06.287Z,21.98
2023-01-08T08:37:08.957Z,23.00
2023-01-08T08:41:10.977Z,23.40
2023-01-08T08:45:13.237Z,21.15
2023-01-08T08:49:14.895Z,22.27
2023-01-08T08:53:16.836Z,22.13
2023-01-08T08:57:18.879Z,22.27
2023-01-08T09:01:20.604Z,21.65
2023-01-08T09:05:22.636Z,24.30
2023-01-08T09:09:24.365Z,23.13
2023-01-08T09:13:26.365Z,22.75
2023-01-08T09:17:28.076Z,22.75
2023-01-08T09:21:30.081Z,24.38
2023-01-08T09:25:31.786Z,22.63
2023-01-08T09:29:33.711Z,23.13
2023-01-08T09:33:35.492Z,23.75
2023-01-08T09:37:37.395Z,24.60
2023-01-08T09:41:43.133Z,23.77
2023-01-08T09:45:49.329Z,23.38
2023-01-08T09:49:55.234Z,21.90
2023-01-08T09:53:57.691Z,21.80
2023-01-08T09:58:03.037Z,21.63
2023-01-08T10:02:13.827Z,21.85
2023-01-08T10:06:17.116Z,21.98
2023-01-08T10:10:22.431Z,23.42
2023-01-08T10:14:29.076Z,22.73
2023-01-08T10:18:32.885Z,22.23
2023-01-08T10:22:34.812Z,23.67
2023-01-08T10:26:38.702Z,26.63
2023-01-08T10:30:40.721Z,25.08
2023-01-08T10:34:49.159Z,26.95
2023-01-08T10:38:56.219Z,26.85
2023-01-08T10:43:07.951Z,26.45
2023-01-08T10:47:18.357Z,26.63
2023-01-08T10:51:23.772Z,28.02
2023-01-08T10:55:25.638Z,27.08
2023-01-08T10:59:27.741Z,26.05
2023-01-08T11:03:32.391Z,27.17
2023-01-08T11:07:37.485Z,25.08
2023-01-08T11:11:39.558Z,24.33
2023-01-08T11:15:41.991Z,25.58
2023-01-08T11:19:44.043Z,24.13
2023-01-08T11:23:46.277Z,24.00
2023-01-08T11:27:50.809Z,23.65
2023-01-08T11:32:09.876Z,21.60
2023-01-08T11:36:23.249Z,21.27
2023-01-08T11:40:30.997Z,22.23
2023-01-08T11:44:58.848Z,20.20
2023-01-08T11:49:12.863Z,22.33
2023-01-08T11:53:26.982Z,21.13
2023-01-08T11:57:46.874Z,22.02
2023-01-08T12:02:20.081Z,23.40
2023-01-08T12:06:43.292Z,22.55
2023-01-08T12:11:04.344Z,22.70
2023-01-08T12:15:20.997Z,21.73
2023-01-08T12:19:38.610Z,23.30
2023-01-08T12:24:01.782Z,24.83
2023-01-08T12:28:31.536Z,26.88
2023-01-08T12:32:42.108Z,23.63
2023-01-08T12:36:49.927Z,27.25
2023-01-08T12:41:01.620Z,29.63
2023-01-08T12:45:07.955Z,24.75
2023-01-08T12:49:14.707Z,28.15
2023-01-08T12:53:48.156Z,26.17
2023-01-08T12:58:30.529Z,27.40
2023-01-08T13:02:47.311Z,29.30
2023-01-08T13:06:51.727Z,30.23
2023-01-08T13:10:55.120Z,29.92
2023-01-08T13:14:57.531Z,29.73
2023-01-08T13:19:04.522Z,30.73
2023-01-08T13:23:06.863Z,29.08
2023-01-08T13:27:14.718Z,30.45
2023-01-08T13:31:24.480Z,29.17
2023-01-08T13:35:30.155Z,29.30
2023-01-08T13:39:38.936Z,29.58
2023-01-08T13:43:41.983Z,30.40
2023-01-08T13:47:46.292Z,29.85
2023-01-08T13:51:48.540Z,30.35
2023-01-08T13:55:57.553Z,30.63
2023-01-08T14:00:00.134Z,32.70
2023-01-08T14:04:02.331Z,32.70
2023-01-08T14:08:04.086Z,31.92
2023-01-08T14:12:06.385Z,33.15
2023-01-08T14:16:13.334Z,31.02
2023-01-08T14:20:28.873Z,34.45
2023-01-08T14:24:31.279Z,31.95
2023-01-08T14:28:33.274Z,34.28
2023-01-08T14:32:34.988Z,32.60
2023-01-08T14:36:37.020Z,35.67
2023-01-08T14:40:42.611Z,34.05
2023-01-08T14:44:46.089Z,33.30
2023-01-08T14:48:48.948Z,37.63
2023-01-08T14:52:52.989Z,36.38
2023-01-08T14:56:59.067Z,36.22
2023-01-08T15:01:05.529Z,36.20
2023-01-08T15:05:20.051Z,32.88
2023-01-08T15:09:23.607Z,35.13
2023-01-08T15:13:30.981Z,33.33
2023-01-08T15:17:33.103Z,30.98
2023-01-08T15:21:36.461Z,29.15
2023-01-08T15:25:38.178Z,29.77
2023-01-08T15:29:48.463Z,32.03
2023-01-08T15:33:50.657Z,31.15
2023-01-08T15:37:52.731Z,29.77
2023-01-08T15:42:13.473Z,33.83
2023-01-08T15:46:16.116Z,31.17
2023-01-08T15:50:20.317Z,30.33
2023-01-08T15:54:25.787Z,30.42
2023-01-08T15:58:27.830Z,31.95
2023-01-08T16:02:29.983Z,32.42
2023-01-08T16:06:32.005Z,35.15
2023-01-08T16:10:34.258Z,30.85
2023-01-08T16:14:38.079Z,31.38
2023-01-08T16:18:40.592Z,31.92
2023-01-08T16:22:42.742Z,32.30
2023-01-08T16:26:44.721Z,30.77
2023-01-08T16:30:46.685Z,30.33
2023-01-08T16:34:48.872Z,31.05
2023-01-08T16:38:50.613Z,31.55
2023-01-08T16:42:52.603Z,33.22
2023-01-08T16:46:55.600Z,33.58
2023-01-08T16:51:05.254Z,31.23
2023-01-08T16:55:08.120Z,31.48
2023-01-08T16:59:22.294Z,31.67
2023-01-08T17:03:25.449Z,31.80
2023-01-08T17:07:27.480Z,35.00
2023-01-08T17:11:29.119Z,32.90
2023-01-08T17:15:31.208Z,33.55
2023-01-08T17:19:33.426Z,35.67
2023-01-08T17:23:36.322Z,33.00
2023-01-08T17:27:38.288Z,35.53
2023-01-08T17:31:40.501Z,32.72
2023-01-08T17:35:42.533Z,34.60
2023-01-08T17:39:45.681Z,33.25
2023-01-08T17:43:47.640Z,34.78
2023-01-08T17:47:49.326Z,36.03
2023-01-08T17:51:53.329Z,33.75
2023-01-08T17:55:55.028Z,35.10
2023-01-08T17:59:58.287Z,34.95
2023-01-08T18:04:01.382Z,32.97
2023-01-08T18:08:03.300Z,34.30
2023-01-08T18:12:05.530Z,33.20
2023-01-08T18:16:10.825Z,34.72
2023-01-08T18:20:13.198Z,35.80
2023-01-08T18:24:15.561Z,35.33
2023-01-08T18:28:17.607Z,35.33
2023-01-08T18:32:25.489Z,36.78
2023-01-08T18:36:27.574Z,38.65
2023-01-08T18:40:30.051Z,37.65
2023-01-08T18:44:32.042Z,37.63
2023-01-08T18:48:35.505Z,37.33
2023-01-08T18:52:39.641Z,38.70
2023-01-08T18:56:42.114Z,40.20
2023-01-08T19:00:43.895Z,40.38
2023-01-08T19:04:46.108Z,41.83
2023-01-08T19:08:48.184Z,39.75
2023-01-08T19:12:50.780Z,41.85
2023-01-08T19:16:53.180Z,40.80
2023-01-08T19:20:56.139Z,48.22
2023-01-08T19:24:58.686Z,47.95
2023-01-08T19:29:00.706Z,42.95
2023-01-08T19:33:02.717Z,42.40
2023-01-08T19:37:04.789Z,41.72
2023-01-08T19:41:26.700Z,41.50
2023-01-08T19:45:28.673Z,43.97
2023-01-08T19:49:30.862Z,41.15
2023-01-08T19:53:32.836Z,44.35
2023-01-08T19:57:34.956Z,44.80
2023-01-08T20:01:37.141Z,46.00
2023-01-08T20:05:42.485Z,51.22
2023-01-08T20:09:44.527Z,50.60
2023-01-08T20:13:46.709Z,42.53
2023-01-08T20:17:48.441Z,42.75
2023-01-08T20:21:50.527Z,41.75
2023-01-08T20:25:52.698Z,49.03
2023-01-08T20:29:54.432Z,41.35
2023-01-08T20:33:58.561Z,44.22
2023-01-08T20:38:00.485Z,48.15
2023-01-08T20:42:04.556Z,44.25
2023-01-08T20:46:09.976Z,44.20
2023-01-08T20:50:19.464Z,44.13
2023-01-08T20:54:22.233Z,44.38
2023-01-08T20:58:23.843Z,43.85
2023-01-08T21:02:25.894Z,47.20
2023-01-08T21:06:29.899Z,47.78
2023-01-08T21:10:32.343Z,50.15
2023-01-08T21:14:34.415Z,45.25
2023-01-08T21:18:36.975Z,47.47
2023-01-08T21:22:38.642Z,48.90
2023-01-08T21:26:40.712Z,49.00
2023-01-08T21:30:42.708Z,46.60
2023-01-08T21:34:45.436Z,46.22
2023-01-08T21:38:47.782Z,47.08
2023-01-08T21:43:08.034Z,48.40
2023-01-08T21:47:16.554Z,47.20
2023-01-08T21:51:37.617Z,46.45
2023-01-08T21:55:41.989Z,46.17
2023-01-08T21:59:44.219Z,47.85
2023-01-08T22:03:46.025Z,48.10
2023-01-08T22:07:48.059Z,46.55
2023-01-08T22:11:50.478Z,49.55
2023-01-08T22:16:08.579Z,46.95
2023-01-08T22:20:11.739Z,49.78
2023-01-08T22:24:13.761Z,53.53
2023-01-08T22:28:15.733Z,50.67
2023-01-08T22:32:17.868Z,52.85
2023-01-08T22:36:20.113Z,51.88
2023-01-08T22:40:22.059Z,50.72
2023-01-08T22:44:24.250Z,52.15
2023-01-08T22:48:27.214Z,56.22
2023-01-08T22:52:29.218Z,54.45
2023-01-08T22:56:31.221Z,47.95
2023-01-08T23:00:33.011Z,53.67
2023-01-08T23:04:35.048Z,48.58
2023-01-08T23:08:38.004Z,57.00
2023-01-08T23:12:39.851Z,51.92
2023-01-08T23:16:42.785Z,49.20
2023-01-08T23:20:44.732Z,49.28
2023-01-08T23:24:46.732Z,51.65
2023-01-08T23:28:50.308Z,49.30
2023-01-08T23:32:51.963Z,49.90
2023-01-08T23:36:53.978Z,50.17
2023-01-08T23:40:56.654Z,50.47
2023-01-08T23:44:58.387Z,54.15
2023-01-08T23:49:00.716Z,49.25
2023-01-08T23:53:02.915Z,50.92
2023-01-08T23:57:06.548Z,48.08
